LFBA

Agen-La Garenne Airport

Airport
ICAO code
LFBA
IATA Code
AGF
Summary
ICAO Region
EUR
ICAO Territory
Location

Agen, Aquitaine

Serving
Agen
Elevation
204 ft
Coordinates
44° 10' 29" N , 0° 35' 26" E
Metar
Observation
LFBA 030300Z AUTO VRB02KT 5000 BR BKN006 OVC049 05/05 Q1011
Station
Agen
Date/Time
2022-12-03 03:00:00
Wind speed
02 kts
Lowest cloud amount
broken clouds
Temperature
5°C
Dew point
5°C
Humidity
100%
QNH
1011 hPa
Weather condition
n/a

Runways

Designator Length Width Surface Rops
11/29 2165 30 ASP No/No

Airport map

Aerial View

SKYbrary Partners:

Safety knowledge contributed by: